• Join FlightAware (Why Join?)
  • Login
  • US Flag 
04:32AM EDT


 

Airport Tracker/Info


-or-


 

Live Flight TrackerFlight Track Log ✈ SKW6345 ✈ 27-Dec-2013 ✈ KASE - KDEN

Flight Track Log - Related Links

Times and Time Zones

All times are in EST time to prevent confusion due to time zone crossing. See the SKW6345 flight status page for this flight to view local times or setup timezone preferences in your user account.

Time Position Orientation Groundspeed Altitude Reporting Facility
EST Latitude Longitude Course Direction KTS MPH feet Rate Location/Type
12:55PM 39.2542 -106.8769 101° East 176 203 25,000  Level Denver Center
12:56PM 39.2711 -106.9619 284° West 233 268 11,900 -4,980 Descending Denver Center
12:57PM 39.3125 -107.0297 308° West 253 291 14,800 2,700 Climbing Denver Center
12:58PM 39.3423 -106.4513 123° Southeast  Level FlightAware Approximate
12:58PM 39.3431 -106.9611 60° Northeast 258 297 17,500  Level Denver Center
12:59PM 39.3285 -106.3353 101° East  Level FlightAware Approximate
12:59PM 39.3461 -106.8528 88° East 302 348 17,900  Level Denver Center
01:00PM 39.3110 -106.2215 101° East  Level FlightAware Approximate
01:00PM 39.3483 -106.7253 89° East 351 404 19,600  Level Denver Center
01:01PM 39.3514 -106.5808 88° East 370 426 21,000 660 Climbing Denver Center
01:02PM 39.3467 -106.4267 92° East 384 442 21,000  Level Denver Center
01:03PM 39.3264 -106.2981 101° East 381 438 21,000  Level Denver Center
01:04PM 39.3083 -106.1664 100° East 379 436 21,000  Level Denver Center
01:05PM 39.2928 -106.0097 97° East 368 423 21,000  Level Denver Center
01:06PM 39.3006 -105.8786 86° East 369 425 21,000  Level Denver Center
01:07PM 39.3078 -105.7553 86° East 348 400 21,000  Level Denver Center
01:08PM 39.3272 -105.6386 78° East 347 399 21,000  Level Denver Center
01:09PM 39.3725 -105.5339 61° Northeast 336 387 21,000 -540 Level Denver Center
01:10PM 39.4300 -105.4147 58° Northeast 344 396 19,900 -1,380 Descending Denver Center
01:11PM 39.4814 -105.3167 56° Northeast 332 382 18,200 -1,560 Descending Denver Center
01:12PM 39.5358 -105.2181 54° Northeast 314 361 16,700 -1,380 Descending Denver Center
01:13PM 39.5819 -105.1267 57° Northeast 306 352 15,400 -1,200 Descending Denver Center
01:14PM 39.6344 -105.0269 56° Northeast 309 356 14,300 -1,020 Descending Denver Center
01:15PM 39.6819 -104.9342 56° Northeast 310 357 13,300 -660 Descending Denver Center
01:16PM 39.7378 -104.8481 50° Northeast 299 344 13,000 -840 Descending Denver Center
01:17PM 39.8183 -104.8411 North 291 335 11,600 -1,020 Descending Denver Center
01:18PM 39.8939 -104.8403 360° North 262 302 11,000 -300 Descending Denver Center
01:19PM 39.9650 -104.8389 North 238 274 11,000 -720 Level Denver Center
01:20PM 40.0306 -104.8342 North 238 274 9,600 -1,380 Descending Denver Center
01:21PM 40.0942 -104.7953 25° Northeast 241 277 8,200 -780 Descending Denver Center
01:22PM 40.0617 -104.7319 124° Southeast 238 274 8,000 -360 Descending Denver Center
01:24PM 40.0047 -104.6994 156° South 209 241 7,500 -720 Descending Denver Center
01:25PM 39.9578 -104.6950 176° South 173 199 6,600 -780 Descending Denver Center
01:26PM 39.9194 -104.6958 181° South 145 167 5,900 -660 Descending Denver Center
01:27PM 39.8794 -104.6964 181° South 139 160 5,300 -600 Descending Denver Center